Time;durP1;ratioP1;P1;durP2;ratioP2;P2;SDS_P1;SDS_P2;PMS_P1;PMS_P2;Temp;Humidity;BMP_temperature;BMP_pressure;BME280_temperature;BME280_humidity;BME280_pressure;Samples;Min_cycle;Max_cycle;Signal;HPM_P1;HPM_P2
2021/05/15 00:01:16;;;;;;;2.05;1.67;;;18.50;60.40;;;;;;5116184;28;20014;-62
2021/05/15 00:03:42;;;;;;;2.90;1.70;;;18.80;84.20;;;;;;5116067;28;20016;-62
2021/05/15 00:06:08;;;;;;;2.25;2.08;;;18.70;60.60;;;;;;5115736;28;20039;-62
2021/05/15 00:08:33;;;;;;;3.20;1.77;;;18.70;60.60;;;;;;5116069;28;20026;-62
2021/05/15 00:10:59;;;;;;;2.15;1.73;;;19.00;60.70;;;;;;5115952;28;20459;-62
2021/05/15 00:13:25;;;;;;;2.40;2.00;;;18.70;60.60;;;;;;5116033;28;20039;-62
2021/05/15 00:15:51;;;;;;;3.03;2.03;;;18.40;60.40;;;;;;5115133;28;20068;-62
2021/05/15 00:18:17;;;;;;;2.88;1.98;;;18.60;60.50;;;;;;5115740;27;20028;-62
2021/05/15 00:20:43;;;;;;;2.55;1.95;;;18.60;60.50;;;;;;5114389;28;20022;-62
2021/05/15 00:23:08;;;;;;;3.42;2.17;;;18.40;60.40;;;;;;5115875;28;20085;-62
2021/05/15 00:25:34;;;;;;;2.03;1.83;;;18.50;60.50;;;;;;5114632;28;20014;-62
2021/05/15 00:28:00;;;;;;;2.15;1.67;;;18.60;60.50;;;;;;5115427;28;20032;-62
2021/05/15 00:30:26;;;;;;;2.53;1.92;;;18.60;60.50;;;;;;5115450;28;20019;-63
2021/05/15 00:32:52;;;;;;;2.38;1.75;;;18.50;60.40;;;;;;5115652;28;20111;-62
2021/05/15 00:35:17;;;;;;;2.42;1.65;;;18.30;60.40;;;;;;5115421;28;20430;-62
2021/05/15 00:37:44;;;;;;;1.90;1.80;;;18.60;60.50;;;;;;5114022;28;20021;-62
2021/05/15 00:40:11;;;;;;;2.13;1.90;;;18.60;60.50;;;;;;5113662;28;20059;-62
2021/05/15 00:42:37;;;;;;;4.40;1.70;;;18.60;60.60;;;;;;5115521;28;20030;-63
2021/05/15 00:45:10;;;;;;;2.88;1.80;;;18.60;60.60;;;;;;5114201;28;20051;-63
2021/05/15 00:47:36;;;;;;;3.22;1.98;;;18.50;60.50;;;;;;5113842;28;20054;-62
2021/05/15 00:50:02;;;;;;;1.88;1.67;;;18.50;60.50;;;;;;5115046;28;20478;-62
2021/05/15 00:52:34;;;;;;;2.63;1.80;;;18.60;61.30;;;;;;5114936;28;20532;-62
2021/05/15 00:55:00;;;;;;;2.22;1.90;;;18.50;60.50;;;;;;5096950;28;20055;-62
2021/05/15 00:57:26;;;;;;;2.53;1.77;;;18.50;60.50;;;;;;5114782;28;20015;-62
2021/05/15 00:59:51;;;;;;;2.25;1.67;;;18.40;84.60;;;;;;5113455;28;20486;-63
2021/05/15 01:02:17;;;;;;;2.08;1.85;;;18.50;60.50;;;;;;5114695;28;20097;-62
2021/05/15 01:04:43;;;;;;;3.63;2.20;;;18.50;60.60;;;;;;5114668;28;20493;-62
2021/05/15 01:07:10;;;;;;;2.72;1.90;;;18.30;60.50;;;;;;5114895;28;20031;-62
2021/05/15 01:09:37;;;;;;;2.80;2.00;;;18.50;60.60;;;;;;5114693;28;20073;-62
2021/05/15 01:12:07;;;;;;;2.72;2.15;;;18.40;60.50;;;;;;5114991;27;20390;-62
2021/05/15 01:14:34;;;;;;;;;;;18.50;60.60;;;;;;5113653;28;20016;-62
2021/05/15 01:17:00;;;;;;;2.05;1.60;;;18.40;84.20;;;;;;5114722;28;19904;-62
2021/05/15 01:19:26;;;;;;;2.20;2.08;;;18.50;60.60;;;;;;5114653;28;20019;-62
2021/05/15 01:21:51;;;;;;;1.85;1.70;;;18.50;60.60;;;;;;5114246;28;20080;-62
2021/05/15 01:24:17;;;;;;;1.90;1.80;;;18.50;60.60;;;;;;5114478;28;20020;-62
2021/05/15 01:26:43;;;;;;;3.28;1.88;;;18.50;60.60;;;;;;5113170;28;20482;-62
2021/05/15 01:29:08;;;;;;;2.55;2.00;;;18.30;60.70;;;;;;5114022;28;20023;-62
2021/05/15 01:31:36;;;;;;;1.77;1.67;;;18.40;60.50;;;;;;5114058;28;20023;-62
2021/05/15 01:34:03;;;;;;;2.05;1.80;;;18.10;60.40;;;;;;5114353;28;20028;-62
2021/05/15 01:36:32;;;;;;;1.83;1.70;;;18.40;60.50;;;;;;5113925;28;20023;-62
2021/05/15 01:38:57;;;;;;;3.38;2.00;;;18.40;60.50;;;;;;5114220;28;20034;-62
2021/05/15 01:41:23;;;;;;;1.92;1.80;;;18.40;60.50;;;;;;5113574;28;20413;-62
2021/05/15 01:43:48;;;;;;;2.83;1.90;;;18.40;60.50;;;;;;5113802;28;20023;-62
2021/05/15 01:46:15;;;;;;;3.13;1.88;;;18.40;60.50;;;;;;5113971;28;20035;-62
2021/05/15 01:48:41;;;;;;;2.40;1.95;;;18.40;60.50;;;;;;5114007;28;20439;-62
2021/05/15 01:51:11;;;;;;;4.25;1.88;;;18.40;60.60;;;;;;5112359;28;20381;-62
2021/05/15 01:53:39;;;;;;;3.08;1.80;;;18.40;60.50;;;;;;5112306;28;20088;-62
2021/05/15 01:56:07;;;;;;;1.85;1.75;;;18.50;60.60;;;;;;5113650;28;20102;-62
2021/05/15 01:58:32;;;;;;;2.70;2.33;;;18.30;60.50;;;;;;5113522;28;20019;-62
2021/05/15 02:00:58;;;;;;;2.95;1.80;;;18.40;60.60;;;;;;5113516;28;20027;-62
2021/05/15 02:03:25;;;;;;;2.80;1.70;;;18.40;60.60;;;;;;5113538;28;20020;-62
2021/05/15 02:05:52;;;;;;;2.00;1.85;;;18.10;60.40;;;;;;5113364;28;20058;-62
2021/05/15 02:08:18;;;;;;;2.42;1.90;;;18.70;60.80;;;;;;5113482;28;20023;-62
2021/05/15 02:10:44;;;;;;;2.17;1.98;;;18.40;60.60;;;;;;5113755;28;20065;-62
2021/05/15 02:13:10;;;;;;;2.08;1.80;;;18.40;60.60;;;;;;5113344;28;20027;-62
2021/05/15 02:15:38;;;;;;;1.80;1.67;;;18.30;60.60;;;;;;5113601;28;20019;-62
2021/05/15 02:18:04;;;;;;;1.75;1.65;;;18.60;85.80;;;;;;5113505;28;20012;-62
2021/05/15 02:20:31;;;;;;;2.35;2.13;;;18.30;60.60;;;;;;5113301;28;20024;-62
2021/05/15 02:22:57;;;;;;;2.05;1.95;;;18.30;60.60;;;;;;5113500;28;20039;-62
2021/05/15 02:25:23;;;;;;;1.70;1.60;;;18.30;60.60;;;;;;5113232;28;20016;-62
2021/05/15 02:27:49;;;;;;;2.45;1.73;;;18.60;60.80;;;;;;5113338;28;20039;-62
2021/05/15 02:30:15;;;;;;;1.83;1.65;;;18.30;84.30;;;;;;5113068;28;20023;-62
2021/05/15 02:32:40;;;;;;;2.58;1.70;;;18.30;60.60;;;;;;5111853;28;20031;-62
2021/05/15 02:35:07;;;;;;;2.03;1.83;;;18.40;60.70;;;;;;5113330;28;20094;-62
2021/05/15 02:37:33;;;;;;;1.90;1.80;;;18.30;60.60;;;;;;5112856;28;20026;-62
2021/05/15 02:39:58;;;;;;;2.45;2.10;;;18.20;60.60;;;;;;5112793;28;20016;-60
2021/05/15 02:42:24;;;;;;;2.25;2.05;;;18.20;60.60;;;;;;5113009;28;20038;-62
2021/05/15 02:44:52;;;;;;;1.98;1.80;;;18.20;85.00;;;;;;5112894;28;20084;-62
2021/05/15 02:47:21;;;;;;;1.90;1.80;;;18.20;60.60;;;;;;5112967;28;20034;-62
2021/05/15 02:49:47;;;;;;;2.70;1.88;;;18.30;84.50;;;;;;5112901;28;20076;-62
2021/05/15 02:52:13;;;;;;;2.75;1.98;;;18.40;85.60;;;;;;5113147;28;20019;-62
2021/05/15 02:54:38;;;;;;;2.17;1.98;;;18.10;60.50;;;;;;5113173;28;20020;-62
2021/05/15 02:57:04;;;;;;;2.03;1.92;;;18.20;60.60;;;;;;5113122;28;20470;-62
2021/05/15 02:59:30;;;;;;;3.10;2.08;;;18.20;60.60;;;;;;5113109;28;20088;-62
2021/05/15 03:01:56;;;;;;;1.98;1.70;;;17.90;60.50;;;;;;5112802;28;20482;-61
2021/05/15 03:04:21;;;;;;;3.17;2.28;;;18.20;60.60;;;;;;5113071;28;20023;-62
2021/05/15 03:06:47;;;;;;;1.83;1.73;;;18.20;60.60;;;;;;5112987;28;20050;-62
2021/05/15 03:09:13;;;;;;;2.42;2.10;;;18.20;60.70;;;;;;5112729;28;20047;-62
2021/05/15 03:11:38;;;;;;;1.80;1.70;;;18.20;60.60;;;;;;5112688;28;20076;-63
2021/05/15 03:14:04;;;;;;;1.83;1.70;;;18.20;60.60;;;;;;5112768;28;20050;-62
2021/05/15 03:16:31;;;;;;;2.40;1.73;;;18.00;60.60;;;;;;5112693;28;20027;-62
2021/05/15 03:18:56;;;;;;;1.85;1.75;;;18.20;60.60;;;;;;5112614;28;20028;-62
2021/05/15 03:21:22;;;;;;;2.33;2.00;;;18.20;60.60;;;;;;5112578;28;20035;-62
2021/05/15 03:23:47;;;;;;;2.95;2.00;;;18.10;60.60;;;;;;5112822;28;20027;-62
2021/05/15 03:26:13;;;;;;;2.50;2.30;;;18.20;60.70;;;;;;5112526;28;20044;-63
2021/05/15 03:28:39;;;;;;;3.45;2.08;;;18.10;60.00;;;;;;5112638;28;20102;-62
2021/05/15 03:31:04;;;;;;;2.20;2.00;;;18.10;60.60;;;;;;5111321;28;20096;-62
2021/05/15 03:33:30;;;;;;;2.50;1.80;;;18.10;60.60;;;;;;5112484;28;20032;-62
2021/05/15 03:35:55;;;;;;;2.75;2.03;;;18.10;60.60;;;;;;5112506;28;20024;-62
2021/05/15 03:38:21;;;;;;;2.72;2.20;;;18.10;60.60;;;;;;5112733;28;20050;-62
2021/05/15 03:40:47;;;;;;;2.00;1.90;;;17.90;60.50;;;;;;5112204;28;20048;-62
2021/05/15 03:43:12;;;;;;;2.35;2.15;;;18.10;60.70;;;;;;5111108;28;20062;-62
2021/05/15 03:45:38;;;;;;;2.25;1.98;;;18.10;60.70;;;;;;5112648;28;20506;-62
2021/05/15 03:48:04;;;;;;;2.67;1.85;;;18.10;60.60;;;;;;5112527;28;20035;-62
2021/05/15 03:50:30;;;;;;;1.83;1.70;;;18.10;60.60;;;;;;5113713;28;20061;-62
2021/05/15 03:52:55;;;;;;;1.95;1.85;;;18.10;60.70;;;;;;5115970;28;20027;-62
2021/05/15 03:55:21;;;;;;;1.90;1.80;;;18.10;60.60;;;;;;5116190;28;20023;-62
2021/05/15 03:57:46;;;;;;;2.38;1.95;;;18.10;60.70;;;;;;5115893;28;20039;-62
2021/05/15 04:00:12;;;;;;;2.70;1.58;;;17.80;60.50;;;;;;5115865;28;20023;-62
2021/05/15 04:02:38;;;;;;;2.38;2.28;;;18.10;60.70;;;;;;5115888;28;20111;-62
2021/05/15 04:05:06;;;;;;;2.42;2.22;;;18.00;60.70;;;;;;5114491;28;20055;-62
2021/05/15 04:07:31;;;;;;;2.60;1.95;;;18.00;60.70;;;;;;5115960;28;20042;-62
2021/05/15 04:09:57;;;;;;;2.40;1.92;;;18.00;60.60;;;;;;5115965;28;20090;-62
2021/05/15 04:12:24;;;;;;;2.40;2.20;;;18.00;60.60;;;;;;5115954;28;20019;-62
2021/05/15 04:15:11;;;;;;;2.35;2.15;;;18.00;60.60;;;;;;5114416;28;20030;-62
2021/05/15 04:17:36;;;;;;;2.13;1.95;;;18.00;60.60;;;;;;5115606;28;20027;-62
2021/05/15 04:20:03;;;;;;;2.28;1.80;;;17.90;60.60;;;;;;5114556;28;20507;-62
2021/05/15 04:22:28;;;;;;;2.70;2.08;;;18.00;60.60;;;;;;5115466;28;20433;-62
2021/05/15 04:24:54;;;;;;;2.00;1.90;;;18.00;60.70;;;;;;5115614;28;20107;-62
2021/05/15 04:27:20;;;;;;;2.30;2.10;;;18.00;60.70;;;;;;5115534;28;20046;-62
2021/05/15 04:29:46;;;;;;;2.92;2.58;;;17.70;60.50;;;;;;5115308;28;20030;-62
2021/05/15 04:32:12;;;;;;;2.08;1.67;;;18.00;60.70;;;;;;5115503;28;20026;-62
2021/05/15 04:34:38;;;;;;;2.78;2.38;;;18.00;60.70;;;;;;5115189;28;20098;-62
2021/05/15 04:37:04;;;;;;;2.00;1.90;;;18.00;60.70;;;;;;5113952;28;20019;-62
2021/05/15 04:39:33;;;;;;;2.15;1.90;;;18.00;84.40;;;;;;5115458;28;20034;-62
2021/05/15 04:41:59;;;;;;;2.20;2.00;;;18.00;60.70;;;;;;5114981;28;20046;-63
2021/05/15 04:44:24;;;;;;;2.22;2.03;;;17.90;60.70;;;;;;5115415;28;20016;-62
2021/05/15 04:46:50;;;;;;;3.10;2.05;;;17.70;60.60;;;;;;5114974;28;20031;-62
2021/05/15 04:49:18;;;;;;;3.30;2.53;;;17.90;60.70;;;;;;5115304;27;20028;-62
2021/05/15 04:51:44;;;;;;;2.20;2.03;;;18.00;60.70;;;;;;5115191;28;20047;-63
2021/05/15 04:54:10;;;;;;;2.63;2.30;;;17.90;60.70;;;;;;5115260;28;20084;-62
2021/05/15 04:56:36;;;;;;;2.78;2.00;;;17.90;60.70;;;;;;5113630;28;20028;-62
2021/05/15 04:59:02;;;;;;;3.47;2.58;;;18.00;60.80;;;;;;5114774;28;20413;-62
2021/05/15 05:01:27;;;;;;;2.40;2.20;;;17.90;60.70;;;;;;5114617;28;20061;-62
2021/05/15 05:03:53;;;;;;;2.65;1.90;;;17.90;60.70;;;;;;5113401;28;20027;-62
2021/05/15 05:06:19;;;;;;;2.35;2.08;;;17.90;60.70;;;;;;5114536;28;20043;-62
2021/05/15 05:08:45;;;;;;;3.95;1.90;;;17.90;60.70;;;;;;5114531;28;20055;-62
2021/05/15 05:11:10;;;;;;;2.33;2.13;;;17.90;60.70;;;;;;5114450;28;20063;-62
2021/05/15 05:13:36;;;;;;;2.58;2.38;;;17.80;60.60;;;;;;5114696;28;20012;-62
2021/05/15 05:16:02;;;;;;;3.05;2.15;;;17.70;60.60;;;;;;5114359;28;20135;-62
2021/05/15 05:18:28;;;;;;;2.28;2.08;;;17.90;60.70;;;;;;5114256;28;20019;-62
2021/05/15 05:20:56;;;;;;;4.07;2.53;;;17.90;60.70;;;;;;5113340;28;20031;-62
2021/05/15 05:23:22;;;;;;;2.15;1.95;;;17.90;60.70;;;;;;5114224;28;20096;-62
2021/05/15 05:25:48;;;;;;;2.75;2.35;;;17.90;60.70;;;;;;5114465;28;20020;-62
2021/05/15 05:28:16;;;;;;;2.05;1.88;;;17.90;60.70;;;;;;5114350;28;20035;-62
2021/05/15 05:30:42;;;;;;;2.58;2.38;;;17.90;60.70;;;;;;5112815;28;20020;-62
2021/05/15 05:33:08;;;;;;;2.67;2.47;;;17.80;60.70;;;;;;5114360;28;20034;-62
2021/05/15 05:35:35;;;;;;;2.42;2.22;;;17.60;60.60;;;;;;5114212;28;20032;-62
2021/05/15 05:38:01;;;;;;;3.15;2.60;;;17.90;60.70;;;;;;5114224;28;20027;-62
2021/05/15 05:40:27;;;;;;;2.50;2.30;;;17.90;60.70;;;;;;5113731;28;20028;-62
2021/05/15 05:42:52;;;;;;;2.72;2.47;;;17.90;60.70;;;;;;5113983;28;20034;-62
2021/05/15 05:45:18;;;;;;;2.47;2.30;;;17.90;60.80;;;;;;5114096;28;20015;-61
2021/05/15 05:47:44;;;;;;;3.10;2.72;;;17.90;60.80;;;;;;5113662;28;20043;-62
2021/05/15 05:50:11;;;;;;;2.97;2.53;;;17.80;60.70;;;;;;5113992;28;20150;-61
2021/05/15 05:52:37;;;;;;;3.03;2.53;;;17.80;60.70;;;;;;5114039;28;20027;-61
2021/05/15 05:55:04;;;;;;;3.03;2.70;;;17.90;60.80;;;;;;5113646;28;20098;-61
2021/05/15 05:57:30;;;;;;;3.47;2.90;;;17.90;60.80;;;;;;5113845;28;20038;-62
2021/05/15 05:59:55;;;;;;;2.78;2.58;;;17.60;60.70;;;;;;5113528;28;20019;-62
2021/05/15 06:02:21;;;;;;;3.47;2.58;;;17.80;60.70;;;;;;5112203;28;20067;-61
2021/05/15 06:04:47;;;;;;;4.10;2.78;;;17.80;60.80;;;;;;5113759;28;20020;-62
2021/05/15 06:07:13;;;;;;;2.55;2.35;;;17.80;60.70;;;;;;5113572;28;20410;-62
2021/05/15 06:09:39;;;;;;;3.20;2.90;;;17.90;60.70;;;;;;5113695;28;20024;-61
2021/05/15 06:12:05;;;;;;;3.20;2.90;;;17.80;60.70;;;;;;5113436;27;20023;-61
2021/05/15 06:14:31;;;;;;;2.65;2.35;;;17.90;60.70;;;;;;5112856;28;20470;-62
2021/05/15 06:16:57;;;;;;;3.28;2.53;;;17.90;60.70;;;;;;5112042;28;20024;-62
2021/05/15 06:19:22;;;;;;;3.30;2.80;;;17.80;60.70;;;;;;5113233;28;20034;-62
2021/05/15 06:21:48;;;;;;;4.28;3.25;;;17.80;61.30;;;;;;5113249;28;20494;-62
2021/05/15 06:24:14;;;;;;;3.30;2.58;;;17.90;60.80;;;;;;5113287;28;20043;-62
2021/05/15 06:26:39;;;;;;;2.78;2.58;;;18.10;60.90;;;;;;5113083;28;20042;-62
2021/05/15 06:29:05;;;;;;;2.60;2.40;;;17.80;60.70;;;;;;5113164;28;20046;-62
2021/05/15 06:31:31;;;;;;;3.60;2.58;;;17.80;60.80;;;;;;5113416;28;20481;-61
2021/05/15 06:33:57;;;;;;;2.78;2.55;;;17.80;60.80;;;;;;5113153;28;20474;-61
2021/05/15 06:36:22;;;;;;;2.78;2.58;;;17.90;60.70;;;;;;5113106;28;20031;-61
2021/05/15 06:38:48;;;;;;;4.95;2.78;;;17.80;60.50;;;;;;5113047;28;20034;-61
2021/05/15 06:41:14;;;;;;;2.92;2.63;;;17.90;60.60;;;;;;5112963;28;20130;-61
2021/05/15 06:43:39;;;;;;;2.70;2.50;;;17.70;60.60;;;;;;5113011;28;20470;-61
2021/05/15 06:46:05;;;;;;;2.97;2.78;;;17.80;60.60;;;;;;5112908;28;20068;-61
2021/05/15 06:48:30;;;;;;;3.38;3.08;;;17.70;60.60;;;;;;5113339;28;20389;-62
2021/05/15 06:50:56;;;;;;;4.22;2.60;;;17.80;84.70;;;;;;5112959;28;20020;-62
2021/05/15 06:53:22;;;;;;;3.50;3.17;;;17.80;60.70;;;;;;5113206;28;20016;-61
2021/05/15 06:55:47;;;;;;;3.67;2.92;;;17.80;60.80;;;;;;5113211;28;20047;-62
2021/05/15 06:58:14;;;;;;;3.35;2.92;;;17.80;60.70;;;;;;5112890;28;20023;-61
2021/05/15 07:00:40;;;;;;;3.03;2.47;;;17.80;60.60;;;;;;5111735;28;20072;-61
2021/05/15 07:03:06;;;;;;;2.95;2.33;;;17.40;60.40;;;;;;5112918;28;20019;-61
2021/05/15 07:05:33;;;;;;;3.53;2.85;;;17.80;85.40;;;;;;5112925;28;20016;-61
2021/05/15 07:07:59;;;;;;;3.05;2.55;;;17.80;60.70;;;;;;5112741;28;20487;-61
2021/05/15 07:10:24;;;;;;;3.35;2.70;;;17.90;60.70;;;;;;5113137;28;20020;-61
2021/05/15 07:12:50;;;;;;;2.40;2.20;;;17.90;60.80;;;;;;5112729;28;20555;-62
2021/05/15 07:15:16;;;;;;;2.30;2.10;;;17.80;60.70;;;;;;5112640;28;20102;-62
2021/05/15 07:17:41;;;;;;;2.72;2.15;;;17.90;61.00;;;;;;5113011;28;20035;-62
2021/05/15 07:20:08;;;;;;;2.08;1.98;;;17.80;60.80;;;;;;5111563;28;20012;-62
2021/05/15 07:22:34;;;;;;;2.70;2.28;;;17.90;60.90;;;;;;5111813;28;20031;-61
2021/05/15 07:25:00;;;;;;;5.18;2.55;;;;;;;;;;5113307;28;20016;-62
2021/05/15 07:27:28;;;;;;;2.88;2.67;;;17.90;60.30;;;;;;5116790;28;20466;-62
2021/05/15 07:29:55;;;;;;;5.40;2.40;;;18.00;60.90;;;;;;5116563;28;20016;-61
2021/05/15 07:32:23;;;;;;;3.13;2.78;;;18.00;60.80;;;;;;5115275;28;20055;-61
2021/05/15 07:34:49;;;;;;;5.05;2.72;;;18.00;60.60;;;;;;5116415;28;20569;-61
2021/05/15 07:37:15;;;;;;;3.78;2.78;;;18.00;60.50;;;;;;5116499;28;20055;-61
2021/05/15 07:39:42;;;;;;;3.95;2.55;;;18.00;60.40;;;;;;5116601;27;20023;-61
2021/05/15 07:42:08;;;;;;;3.58;3.10;;;18.00;60.30;;;;;;5114989;28;20044;-61
2021/05/15 07:44:34;;;;;;;2.75;2.30;;;18.10;60.20;;;;;;5116288;28;20458;-61
2021/05/15 07:46:59;;;;;;;3.08;2.78;;;18.10;60.10;;;;;;5116099;28;20023;-61
2021/05/15 07:49:25;;;;;;;2.85;2.58;;;17.90;60.00;;;;;;5116177;28;20024;-64
2021/05/15 07:51:52;;;;;;;3.75;2.33;;;18.10;60.00;;;;;;5116139;28;20199;-65
2021/05/15 07:54:19;;;;;;;5.47;2.75;;;17.90;60.00;;;;;;5116361;28;20037;-64
2021/05/15 07:56:44;;;;;;;6.10;3.03;;;18.10;60.70;;;;;;5115719;28;20493;-64
2021/05/15 07:59:10;;;;;;;11.15;3.20;;;18.20;60.80;;;;;;5116169;28;20070;-64
2021/05/15 08:01:36;;;;;;;6.72;2.70;;;18.20;60.60;;;;;;5115666;28;20023;-66
2021/05/15 08:04:01;;;;;;;7.15;2.95;;;18.20;60.40;;;;;;5115822;28;20023;-65
2021/05/15 08:06:27;;;;;;;9.55;2.60;;;18.20;60.60;;;;;;5115732;28;20028;-65
2021/05/15 08:08:52;;;;;;;10.95;2.65;;;18.20;61.10;;;;;;5116143;28;20099;-64
2021/05/15 08:11:18;;;;;;;10.80;2.80;;;18.20;61.10;;;;;;5115987;28;20030;-64
2021/05/15 08:13:45;;;;;;;14.23;2.42;;;18.10;61.00;;;;;;5116000;28;20051;-65
2021/05/15 08:16:12;;;;;;;5.40;2.28;;;18.40;61.00;;;;;;5116005;27;20066;-64
2021/05/15 08:18:38;;;;;;;3.30;2.72;;;18.50;84.40;;;;;;5115964;28;20027;-65
2021/05/15 08:21:04;;;;;;;3.95;2.10;;;19.00;60.90;;;;;;5115599;28;20435;-64
2021/05/15 08:23:35;;;;;;;11.15;2.55;;;18.60;60.30;;;;;;5115809;28;20048;-66
2021/05/15 08:26:01;;;;;;;4.68;2.10;;;18.70;60.10;;;;;;5115831;28;20390;-65
2021/05/15 08:28:27;;;;;;;4.25;2.40;;;18.60;59.80;;;;;;5114293;28;20032;-66
2021/05/15 08:30:52;;;;;;;3.20;2.25;;;18.80;59.70;;;;;;5115393;28;20031;-66
2021/05/15 08:33:18;;;;;;;6.30;2.35;;;18.90;59.70;;;;;;5115303;28;20027;-67
2021/05/15 08:35:44;;;;;;;6.10;2.42;;;;;;;;;;5114888;28;20024;-65
2021/05/15 08:38:10;;;;;;;2.42;2.15;;;19.00;58.80;;;;;;5115160;28;20073;-64
2021/05/15 08:40:36;;;;;;;8.57;2.55;;;19.00;59.40;;;;;;5113638;28;20440;-65
2021/05/15 08:43:03;;;;;;;4.43;2.10;;;19.10;59.50;;;;;;5115445;28;20106;-66
2021/05/15 08:45:29;;;;;;;3.78;2.17;;;19.20;59.30;;;;;;5115022;28;20019;-66
2021/05/15 08:47:57;;;;;;;4.05;2.40;;;19.00;59.10;;;;;;5115119;28;20033;-65
2021/05/15 08:50:25;;;;;;;2.67;2.03;;;19.80;59.40;;;;;;5115250;28;20024;-65
2021/05/15 08:52:53;;;;;;;3.10;1.88;;;19.20;59.00;;;;;;5114953;28;20031;-66
2021/05/15 08:55:28;;;;;;;2.22;2.00;;;19.20;58.80;;;;;;5114862;28;20020;-66
2021/05/15 08:57:55;;;;;;;2.92;2.20;;;19.20;59.10;;;;;;5115002;28;20028;-66
2021/05/15 09:00:31;;;;;;;2.90;1.90;;;19.10;59.00;;;;;;5114887;28;20487;-65
2021/05/15 09:03:00;;;;;;;6.03;2.25;;;19.00;58.90;;;;;;5114793;28;20482;-66
2021/05/15 09:05:27;;;;;;;4.90;2.28;;;19.30;58.70;;;;;;5115008;28;20020;-65
2021/05/15 09:07:58;;;;;;;3.85;2.00;;;19.30;58.50;;;;;;5114502;28;20031;-66
2021/05/15 09:10:27;;;;;;;4.95;2.95;;;19.30;58.50;;;;;;5114571;28;20020;-66
2021/05/15 09:12:53;;;;;;;4.15;2.05;;;19.30;58.50;;;;;;5113221;28;20505;-66
2021/05/15 09:15:19;;;;;;;3.75;2.53;;;19.30;58.50;;;;;;5115015;28;20020;-65
2021/05/15 09:17:50;;;;;;;3.15;1.95;;;19.30;58.40;;;;;;5114519;28;20407;-66
2021/05/15 09:20:25;;;;;;;8.88;2.67;;;19.30;58.40;;;;;;5113420;28;20047;-66
2021/05/15 09:22:51;;;;;;;4.97;2.28;;;19.30;82.10;;;;;;5114865;28;20103;-65
2021/05/15 09:25:17;;;;;;;5.35;2.35;;;19.40;58.30;;;;;;5114302;28;20150;-63
2021/05/15 09:27:42;;;;;;;7.20;3.30;;;19.40;58.30;;;;;;5114243;28;20487;-66
2021/05/15 09:30:09;;;;;;;3.40;2.40;;;19.40;58.20;;;;;;5113083;28;20153;-66
2021/05/15 09:32:35;;;;;;;3.40;2.38;;;19.40;58.20;;;;;;5114176;28;20409;-65
2021/05/15 09:35:02;;;;;;;2.65;2.45;;;19.20;58.10;;;;;;5114067;28;20028;-65
2021/05/15 09:37:36;;;;;;;2.70;2.20;;;19.40;58.30;;;;;;5114348;27;20035;-66
2021/05/15 09:40:12;;;;;;;3.05;2.20;;;19.50;58.40;;;;;;5114548;28;20024;-66
2021/05/15 09:42:52;;;;;;;5.18;2.80;;;19.50;58.00;;;;;;5114081;28;20161;-66
2021/05/15 09:45:28;;;;;;;;;;;19.40;58.40;;;;;;5114832;28;20382;-66
2021/05/15 09:48:00;;;;;;;2.88;2.38;;;19.50;58.20;;;;;;5113733;28;19911;-66
2021/05/15 09:50:33;;;;;;;5.90;3.25;;;19.50;58.70;;;;;;5112499;28;20020;-65
2021/05/15 09:53:20;;;;;;;5.63;4.20;;;19.50;57.70;;;;;;5113685;28;20482;-65
2021/05/15 09:55:51;;;;;;;5.82;3.47;;;19.20;57.70;;;;;;5113964;28;20019;-64
2021/05/15 09:58:17;;;;;;;7.05;3.90;;;19.60;82.60;;;;;;5114102;28;20032;-65
2021/05/15 10:00:45;;;;;;;4.03;2.85;;;19.40;58.20;;;;;;5113566;28;20030;-64
2021/05/15 10:03:20;;;;;;;5.03;2.67;;;20.20;58.70;;;;;;5113544;28;20023;-65
2021/05/15 10:06:12;;;;;;;3.55;3.10;;;19.50;58.50;;;;;;5113846;28;20027;-63
2021/05/15 10:08:42;;;;;;;6.78;3.38;;;19.60;58.10;;;;;;5114222;28;20043;-65
2021/05/15 10:11:08;;;;;;;4.15;3.45;;;19.50;58.20;;;;;;5114003;28;20012;-65
2021/05/15 10:13:34;;;;;;;3.47;2.90;;;19.50;58.50;;;;;;5112318;28;20477;-66
2021/05/15 10:16:01;;;;;;;4.85;3.38;;;19.70;58.20;;;;;;5112313;28;20084;-65
2021/05/15 10:18:28;;;;;;;6.10;3.78;;;19.30;57.70;;;;;;5113691;28;20031;-64
2021/05/15 10:20:54;;;;;;;4.50;3.63;;;19.30;58.00;;;;;;5113561;28;20020;-66
2021/05/15 10:23:25;;;;;;;4.65;3.63;;;19.60;58.30;;;;;;5113505;28;20077;-65
2021/05/15 10:26:01;;;;;;;7.93;3.92;;;19.60;58.40;;;;;;5113294;28;20027;-65
2021/05/15 10:28:29;;;;;;;4.75;3.67;;;19.60;58.30;;;;;;5113616;28;20055;-66
2021/05/15 10:31:22;;;;;;;4.45;3.80;;;19.60;58.30;;;;;;5113203;28;20076;-66
2021/05/15 10:33:48;;;;;;;4.95;3.50;;;19.40;58.10;;;;;;5112699;28;20042;-65
2021/05/15 10:36:24;;;;;;;5.70;4.07;;;19.70;58.50;;;;;;5113364;28;20028;-65
2021/05/15 10:38:54;;;;;;;7.35;4.07;;;19.50;58.70;;;;;;5113152;28;20026;-66
2021/05/15 10:41:27;;;;;;;4.13;3.40;;;19.50;58.50;;;;;;5112932;28;20104;-67
2021/05/15 10:43:55;;;;;;;6.00;3.65;;;19.60;58.60;;;;;;5113075;28;20126;-65
2021/05/15 10:46:28;;;;;;;5.82;3.83;;;19.60;58.60;;;;;;5111746;28;20016;-63
2021/05/15 10:49:02;;;;;;;6.57;3.90;;;19.60;58.40;;;;;;5114799;28;20023;-66
2021/05/15 10:51:39;;;;;;;4.85;3.58;;;20.10;58.90;;;;;;5113432;28;20027;-65
2021/05/15 10:54:05;;;;;;;9.98;5.05;;;19.50;58.60;;;;;;5113718;28;20381;-65
2021/05/15 10:56:32;;;;;;;5.55;4.50;;;19.60;58.60;;;;;;5114092;28;20045;-65
2021/05/15 10:59:07;;;;;;;5.95;4.35;;;19.80;58.60;;;;;;5113788;28;20019;-65
2021/05/15 11:02:06;;;;;;;6.35;4.57;;;19.80;58.50;;;;;;5117370;28;20414;-64
2021/05/15 11:04:35;;;;;;;6.00;4.82;;;19.80;58.40;;;;;;5105670;28;20358;-62
2021/05/15 11:07:10;;;;;;;6.03;4.90;;;19.60;58.10;;;;;;5116901;28;20062;-63
2021/05/15 11:09:38;;;;;;;6.72;5.40;;;19.70;58.00;;;;;;5117245;28;20026;-62
2021/05/15 11:12:15;;;;;;;6.22;4.78;;;20.20;58.40;;;;;;5117201;28;20076;-62
2021/05/15 11:14:43;;;;;;;8.27;5.75;;;19.70;58.20;;;;;;5116962;28;20027;-62
2021/05/15 11:17:10;;;;;;;6.95;4.88;;;19.60;57.90;;;;;;5115610;28;20023;-62
2021/05/15 11:19:37;;;;;;;8.65;5.75;;;19.50;58.00;;;;;;5116795;28;20114;-62
2021/05/15 11:22:04;;;;;;;5.30;4.63;;;19.40;57.80;;;;;;5116867;28;20102;-62
2021/05/15 11:24:34;;;;;;;5.43;4.50;;;19.40;57.70;;;;;;5116919;28;20051;-62
2021/05/15 11:27:12;;;;;;;6.93;5.57;;;19.60;58.10;;;;;;5116994;28;20077;-61
2021/05/15 11:29:38;;;;;;;4.97;4.47;;;19.60;58.30;;;;;;5117091;28;20027;-61
2021/05/15 11:32:07;;;;;;;7.22;5.03;;;19.50;58.30;;;;;;5116602;28;20026;-62
2021/05/15 11:34:33;;;;;;;7.82;5.88;;;19.50;58.00;;;;;;5116553;28;20027;-61
2021/05/15 11:36:59;;;;;;;6.75;5.32;;;19.40;57.80;;;;;;5116466;28;20474;-62
2021/05/15 11:39:24;;;;;;;10.48;6.53;;;19.30;58.00;;;;;;5116774;28;20069;-61
2021/05/15 11:42:13;;;;;;;6.03;5.00;;;19.60;58.10;;;;;;5116347;28;20083;-63
2021/05/15 11:44:41;;;;;;;5.47;4.82;;;19.40;58.60;;;;;;5116537;28;20148;-62
2021/05/15 11:47:10;;;;;;;5.32;4.70;;;19.20;58.80;;;;;;5116359;28;20024;-62
2021/05/15 11:49:37;;;;;;;5.35;4.38;;;19.10;58.30;;;;;;5116160;28;20553;-62
2021/05/15 11:52:06;;;;;;;4.95;4.43;;;19.20;58.30;;;;;;5116292;28;20057;-62
2021/05/15 11:54:33;;;;;;;9.95;4.18;;;19.30;58.30;;;;;;5116362;28;20102;-61
2021/05/15 11:57:00;;;;;;;6.10;4.38;;;19.30;58.40;;;;;;5116045;28;20028;-61
2021/05/15 11:59:27;;;;;;;9.02;4.30;;;19.10;58.30;;;;;;5116252;28;20012;-61
2021/05/15 12:01:53;;;;;;;6.72;4.40;;;19.30;58.60;;;;;;5115949;28;20016;-61
2021/05/15 12:04:28;;;;;;;5.05;4.10;;;19.20;59.20;;;;;;5114593;28;20027;-61
2021/05/15 12:07:05;;;;;;;5.10;4.28;;;19.30;59.60;;;;;;5115981;28;20032;-61
2021/05/15 12:09:32;;;;;;;6.53;4.53;;;19.30;60.10;;;;;;5115957;28;20038;-61
2021/05/15 12:12:09;;;;;;;4.18;3.72;;;19.40;60.60;;;;;;5114859;28;20084;-61
2021/05/15 12:14:38;;;;;;;7.20;4.50;;;19.30;61.30;;;;;;5098630;28;20076;-64
2021/05/15 12:17:06;;;;;;;6.13;4.70;;;19.30;62.10;;;;;;5081896;28;20028;-63
2021/05/15 12:19:32;;;;;;;4.82;4.32;;;19.30;62.90;;;;;;5092246;28;20025;-63
2021/05/15 12:22:08;;;;;;;7.68;4.72;;;19.10;63.00;;;;;;5095064;28;20031;-63
2021/05/15 12:24:39;;;;;;;9.43;4.45;;;19.40;63.40;;;;;;5093928;28;20480;-61
2021/05/15 12:27:13;;;;;;;6.15;4.15;;;19.30;63.60;;;;;;5094916;28;20028;-62
2021/05/15 12:29:40;;;;;;;4.85;4.00;;;19.60;64.20;;;;;;5095039;28;20051;-65
2021/05/15 12:32:06;;;;;;;5.32;3.92;;;19.50;88.50;;;;;;5094945;28;20020;-66
2021/05/15 12:34:32;;;;;;;4.88;4.10;;;19.00;64.20;;;;;;5093555;28;20600;-65
2021/05/15 12:36:57;;;;;;;6.13;3.88;;;19.50;64.40;;;;;;5095062;28;20064;-65
2021/05/15 12:39:34;;;;;;;7.57;3.90;;;19.40;64.60;;;;;;5095000;28;20012;-65
2021/05/15 12:42:00;;;;;;;7.25;3.13;;;19.50;64.80;;;;;;5094659;28;20039;-66
2021/05/15 12:44:39;;;;;;;13.48;4.15;;;19.50;65.00;;;;;;5094949;28;20020;-66
2021/05/15 12:47:05;;;;;;;5.20;3.30;;;19.50;65.20;;;;;;5094881;28;20032;-66
2021/05/15 12:49:38;;;;;;;5.55;3.55;;;19.50;65.30;;;;;;5094825;28;20020;-66